Flight Track Log - Related Links

Times and Time Zones

All times are in EDT time to prevent confusion due to time zone crossing. See the AAL1609 flight status page for this flight to view local times or setup timezone preferences in your user account.

Time Position Orientation Groundspeed Altitude Reporting Facility
EDT Latitude Longitude Course Direction KTS MPH feet Rate Location/Type
Wed 09:05:32 AM 33.6457 -84.3612 270° West  Level FlightAware Approximate
Wed 09:06:32 AM 33.6427 -84.4915 79° East  Level FlightAware Approximate
Wed 09:06:55 AM 33.6453 -84.4756 278° West 428 493 2,800  Level Atlanta Center
Wed 09:11:07 AM 33.6892 -84.8578 264° West 290 334 13,600 2,481 Climbing Atlanta Center
Wed 09:12:07 AM 33.6781 -84.9775 262° West 342 394 15,700 2,300 Climbing Atlanta Center
Wed 09:13:07 AM 33.6644 -85.0994 262° West 376 433 18,200 2,450 Climbing Atlanta Center
Wed 09:14:07 AM 33.6508 -85.2167 270° West 387 445 20,600 2,182 Climbing Atlanta Center
Wed 09:15:19 AM 33.6517 -85.3439 270° West 387 445 23,000 2,364 Climbing Atlanta Center
Wed 09:16:19 AM 33.6519 -85.5136 273° West 387 445 25,800 1,934 Climbing Atlanta Center
Wed 09:17:20 AM 33.6567 -85.6336 271° West 397 457 26,900 1,300 Climbing Atlanta Center
Wed 09:18:19 AM 33.6589 -85.7783 271° West 419 482 28,400 1,563 Climbing Atlanta Center
Wed 09:19:19 AM 33.6611 -85.9131 270° West 419 482 30,000 1,318 Climbing Atlanta Center
Wed 09:20:31 AM 33.6608 -86.0581 271° West 424 488 31,300 1,409 Climbing Atlanta Center
Wed 09:21:31 AM 33.6642 -86.2278 270° West 429 494 33,100 1,350 Climbing Atlanta Center
Wed 09:22:31 AM 33.6636 -86.3700 271° West 429 494 34,000 450 Climbing Atlanta Center
Wed 09:23:31 AM 33.6653 -86.5072 271° West 423 487 34,000  Level Atlanta Center
Wed 09:24:31 AM 33.6683 -86.6597 270° West 423 487 34,000  Level Atlanta Center
Wed 09:25:31 AM 33.6672 -86.8019 269° West 423 487 34,000  Level Atlanta Center
Wed 09:26:31 AM 33.6661 -86.9417 262° West 423 487 34,000  Level Atlanta Center
Wed 09:28:22 AM 33.6339 -87.2061 262° West 445 512 34,000  Level Memphis Center
Wed 09:29:22 AM 33.6186 -87.3439 262° West 445 512 34,000  Level Memphis Center
Wed 09:30:22 AM 33.6031 -87.4842 263° West 439 505 34,000  Level Memphis Center
Wed 09:31:22 AM 33.5894 -87.6242 262° West 434 499 34,000  Level Memphis Center
Wed 09:32:22 AM 33.5717 -87.7667 262° West 429 494 34,000  Level Memphis Center
Wed 09:33:22 AM 33.5575 -87.8919 261° West 429 494 34,000  Level Memphis Center
Wed 09:34:22 AM 33.5394 -88.0344 263° West 429 494 34,000  Level Memphis Center
Wed 09:35:22 AM 33.5253 -88.1719 263° West 429 494 34,000  Level Memphis Center
Wed 09:36:22 AM 33.5108 -88.3117 262° West 429 494 34,000  Level Memphis Center
Wed 09:37:22 AM 33.4944 -88.4542 266° West 429 494 34,000  Level Memphis Center
Wed 09:38:22 AM 33.4861 -88.5939 269° West 429 494 34,000  Level Memphis Center
Wed 09:39:22 AM 33.4839 -88.7383 270° West 429 494 34,000  Level Memphis Center
Wed 09:40:22 AM 33.4833 -88.8803 269° West 429 494 34,000  Level Memphis Center
Wed 09:41:22 AM 33.4808 -89.0197 270° West 429 494 34,000  Level Memphis Center
Wed 09:42:22 AM 33.4803 -89.1617 270° West 424 488 34,000  Level Memphis Center
Wed 09:43:22 AM 33.4794 -89.3011 269° West 424 488 34,000  Level Memphis Center
Wed 09:44:22 AM 33.4764 -89.4581 271° West 424 488 34,000  Level Memphis Center
Wed 09:45:22 AM 33.4772 -89.5703 269° West 424 488 34,000  Level Memphis Center
Wed 09:46:22 AM 33.4742 -89.7397 268° West 424 488 34,000  Level Memphis Center
Wed 09:47:22 AM 33.4706 -89.8817 269° West 424 488 34,000  Level Memphis Center
Wed 09:48:22 AM 33.4689 -90.0236 269° West 424 488 34,000  Level Memphis Center
Wed 09:49:22 AM 33.4672 -90.1631 263° West 424 488 34,000  Level Memphis Center
Wed 09:50:22 AM 33.4525 -90.3025 238° Southwest 424 488 34,000  Level Memphis Center
Wed 09:51:22 AM 33.3881 -90.4244 237° Southwest 415 478 34,000  Level Memphis Center
Wed 09:52:22 AM 33.3231 -90.5436 237° Southwest 415 478 34,000  Level Memphis Center
Wed 09:53:22 AM 33.2644 -90.6528 238° Southwest 433 498 34,000  Level Memphis Center
Wed 09:54:22 AM 33.2014 -90.7744 238° Southwest 433 498 34,000  Level Memphis Center
Wed 09:55:22 AM 33.1511 -90.8708 236° Southwest 433 498 34,000  Level Memphis Center
Wed 09:56:22 AM 33.0711 -91.0142 238° Southwest 440 506 34,000  Level Memphis Center
Wed 09:57:22 AM 33.0078 -91.1328 238° Southwest 435 501 34,000  Level Memphis Center
Wed 09:58:22 AM 32.9422 -91.2558 238° Southwest 435 501 34,000  Level Memphis Center
Wed 10:00:51 AM 32.7789 -91.5678 261° West 428 493 34,000  Level Fort Worth Center
Wed 10:01:51 AM 32.7603 -91.7097 259° West 428 493 34,000  Level Fort Worth Center
Wed 10:02:51 AM 32.7372 -91.8447 258° West 428 493 34,000  Level Fort Worth Center
Wed 10:03:51 AM 32.7119 -91.9844 256° West 428 493 34,000  Level Fort Worth Center
Wed 10:04:51 AM 32.6844 -92.1194 258° West 423 487 34,000  Level Fort Worth Center
Wed 10:05:51 AM 32.6589 -92.2564 258° West 428 493 34,000  Level Fort Worth Center
Wed 10:06:51 AM 32.6333 -92.3986 258° West 435 501 34,000  Level Fort Worth Center
Wed 10:07:51 AM 32.6092 -92.5306 257° West 430 495 34,000  Level Fort Worth Center
Wed 10:08:51 AM 32.5831 -92.6675 256° West 430 495 34,000  Level Fort Worth Center
Wed 10:09:51 AM 32.5550 -92.8047 258° West 430 495 34,000  Level Fort Worth Center
Wed 10:10:51 AM 32.5286 -92.9464 257° West 430 495 34,000  Level Fort Worth Center
Wed 10:11:51 AM 32.5019 -93.0806 257° West 435 501 34,000  Level Fort Worth Center
Wed 10:12:51 AM 32.4756 -93.2197 256° West 435 501 34,000  Level Fort Worth Center
Wed 10:13:51 AM 32.4467 -93.3567 263° West 435 501 34,000  Level Fort Worth Center
Wed 10:14:51 AM 32.4322 -93.4975 265° West 435 501 34,000  Level Fort Worth Center
Wed 10:15:51 AM 32.4219 -93.6381 265° West 430 495 34,000  Level Fort Worth Center
Wed 10:16:51 AM 32.4114 -93.7789 264° West 430 495 34,000  Level Fort Worth Center
Wed 10:17:51 AM 32.3989 -93.9219 264° West 430 495 34,000  Level Fort Worth Center
Wed 10:18:51 AM 32.3858 -94.0628 264° West 430 495 34,000  Level Fort Worth Center
Wed 10:19:51 AM 32.3731 -94.2058 264° West 435 501 34,000  Level Fort Worth Center
Wed 10:20:51 AM 32.3617 -94.3442 264° West 435 501 34,000  Level Fort Worth Center
Wed 10:21:51 AM 32.3483 -94.4847 263° West 435 501 34,000  Level Fort Worth Center
Wed 10:22:51 AM 32.3328 -94.6278 265° West 435 501 34,000 -50 Level Fort Worth Center
Wed 10:23:51 AM 32.3214 -94.7756 265° West 446 513 33,900 -700 Descending Fort Worth Center
Wed 10:24:51 AM 32.3114 -94.8989 266° West 446 513 32,600 -1,700 Descending Fort Worth Center
Wed 10:25:51 AM 32.3019 -95.0589 264° West 446 513 30,500 -1,800 Descending Fort Worth Center
Wed 10:26:51 AM 32.2897 -95.1894 263° West 446 513 29,000 -1,650 Descending Fort Worth Center
Wed 10:27:51 AM 32.2736 -95.3397 263° West 453 521 27,200 -1,600 Descending Fort Worth Center
Wed 10:28:51 AM 32.2592 -95.4850 263° West 453 521 25,800 -1,656 Descending Fort Worth Center
Wed 10:31:03 AM 32.2300 -95.7828 265° West 421 484 21,900 -1,500 Descending Fort Worth Center
Wed 10:32:03 AM 32.2192 -95.9156 263° West 421 484 21,000 -450 Descending Fort Worth Center
Wed 10:33:03 AM 32.2061 -96.0483 262° West 410 472 21,000 -550 Level Fort Worth Center
Wed 10:34:03 AM 32.1906 -96.1786 310° West 410 472 19,900 -1,800 Descending Fort Worth Center
Wed 10:37:03 AM 32.3914 -96.4611 317° Northwest 353 406 13,800 -2,009 Descending Fort Worth Center
Wed 10:37:44 AM 32.4378 -96.5119 316° Northwest 347 399 12,500 -1,778 Descending FAA TRACON SMA TRACON (SMA)
Wed 10:38:24 AM 32.4794 -96.5603 314° West 342 394 11,400 -1,111 Descending FAA TRACON SMA TRACON (SMA)
Wed 10:39:05 AM 32.5233 -96.6136 314° West 323 372 11,000 -296 Descending FAA TRACON SMA TRACON (SMA)
Wed 10:39:45 AM 32.5664 -96.6658 314° West 318 366 11,000  Level FAA TRACON SMA TRACON (SMA)
Wed 10:40:25 AM 32.6067 -96.7147 314° West 298 343 11,000  Level FAA TRACON SMA TRACON (SMA)
Wed 10:41:05 AM 32.6425 -96.7583 315° West 299 344 11,000  Level FAA TRACON SMA TRACON (SMA)
Wed 10:41:45 AM 32.6828 -96.8069 315° West 298 343 11,000  Level FAA TRACON SMA TRACON (SMA)
Wed 10:42:25 AM 32.7228 -96.8547 314° West 295 339 11,000  Level FAA TRACON SMA TRACON (SMA)
Wed 10:43:05 AM 32.7544 -96.8931 353° North 261 300 11,000  Level FAA TRACON SMA TRACON (SMA)
Wed 10:43:45 AM 32.7989 -96.8992 359° North 238 274 11,000  Level FAA TRACON SMA TRACON (SMA)
Wed 10:44:25 AM 32.8450 -96.8997 360° North 237 273 11,000 -375 Level FAA TRACON SMA TRACON (SMA)
Wed 10:45:05 AM 32.8864 -96.9000 359° North 242 278 10,500 -1,125 Descending FAA TRACON SMA TRACON (SMA)
Wed 10:45:45 AM 32.9328 -96.9011 358° North 240 276 9,500 -1,575 Descending FAA TRACON SMA TRACON (SMA)
Wed 10:46:25 AM 32.9781 -96.9033 358° North 234 269 8,400 -1,425 Descending FAA TRACON SMA TRACON (SMA)
Wed 10:47:05 AM 33.0175 -96.9047 341° North 229 264 7,600 -1,425 Descending FAA TRACON SMA TRACON (SMA)
Wed 10:47:45 AM 33.0589 -96.9219 328° Northwest 233 268 6,500 -1,367 Descending FAA TRACON SMA TRACON (SMA)
Wed 10:48:24 AM 33.0961 -96.9494 282° West 228 262 5,800 -1,125 Descending FAA TRACON SMA TRACON (SMA)
Wed 10:49:05 AM 33.1047 -96.9981 236° Southwest 228 262 5,000 -889 Descending FAA TRACON SMA TRACON (SMA)
Wed 10:49:45 AM 33.0850 -97.0331 172° South 237 273 4,600 -1,125 Descending FAA TRACON SMA TRACON (SMA)
Wed 10:50:25 AM 33.0450 -97.0261 172° South 208 239 3,500 -1,650 Descending FAA TRACON SMA TRACON (SMA)

Login

Don't have an account? Register now (free) for customized features, flight alerts, and more!